Weather observations for the past three days for
Sweetwater, Avenger Field Airport
Imperial (Metric)
Date Time (cdt) Wind (mph) Vis. (mi.) Weather Sky Cond. Temperature (ºF) Relative Humidity Wind Chill (°F) Heat Index (°F) Pressure Precipitation (in)
Air Dwpt 6 hour altimeter (in) sea level (mb) 1 hr 3 hr 6 hr
Max. Min.
04 00:15 S 14 10.00 NULL NULL 65.3 46.2 50% 29.98 0.0
03 23:55 S 13 10.00 NULL NULL 65.3 45.9 50% 30 0.0
03 23:35 S 12 10.00 NULL NULL 64.9 45.7 50% 30.01 0.0
03 23:15 S 9 10.00 NULL NULL 64.8 45.5 50% 30.01 0.0
03 22:55 S 8 10.00 NULL NULL 65.7 45.3 48% 30.02 0.0
03 22:35 S 9 10.00 NULL NULL 66.2 45 46% 30.02 0.0
03 22:15 S 10 10.00 NULL NULL 67.1 45.1 45% 30.02 0.0
03 21:55 S 10 10.00 NULL NULL 67.5 45 44% 30.01 0.0
03 21:35 S 9 10.00 NULL NULL 68.2 44.8 43% 30.01 0.0
03 21:15 S 10 10.00 NULL NULL 69.1 44.2 41% 30.01 0.0
03 20:55 S 13 10.00 NULL NULL 70.5 44.2 39% 30.01 0.0
03 20:35 S 12 10.00 NULL NULL 71.4 43.7 37% 30 0.0
03 20:15 S 14 G 18 10.00 NULL NULL 72.1 43.9 36% 30 0.0
03 19:55 S 14 G 20 10.00 NULL NULL 73.4 44.4 36% 30 0.0
03 19:35 S 14 G 20 10.00 NULL NULL 73.9 43.9 34% 30.01 0.0
03 19:15 S 15 10.00 NULL NULL 74.5 44.1 34% 30.01 0.0
03 18:55 S 15 G 22 10.00 NULL NULL 75.2 43.7 79.2 75.2 33% 77 30.02 0.0
03 18:35 S 15 10.00 NULL NULL 76.1 43.7 32% 77 30.02 0.0
03 18:15 S 18 G 22 10.00 NULL NULL 77 43.3 30% 78 30.02 0.0
03 17:55 S 13 G 21 10.00 NULL NULL 77.4 43.5 30% 78 30.02 0.0
03 17:35 S 16 G 25 10.00 NULL NULL 78.1 43.3 29% 78 30.03 0.0
03 17:15 S 15 G 25 10.00 NULL NULL 77.9 42.8 29% 78 30.04 0.0
03 16:55 S 14 G 22 10.00 NULL NULL 77.7 42.8 29% 78 30.05 0.0
03 16:35 S 17 10.00 NULL NULL 77.7 42.3 28% 78 30.05 0.0
03 16:15 S 12 G 25 10.00 NULL NULL 78.1 43.2 29% 78 30.06 0.0
03 15:55 S 12 G 23 10.00 NULL NULL 79 42.8 28% 78 30.08 0.0
03 15:35 S 12 G 23 10.00 NULL NULL 78.8 42.8 28% 78 30.09 0.0
03 15:15 SW 16 G 22 10.00 NULL NULL 77.9 43.5 30% 78 30.1 0.0
03 14:55 S 16 G 22 10.00 NULL NULL 78.6 43.2 28% 78 30.11 0.0
03 14:35 S 15 G 20 10.00 NULL NULL 78.8 42.1 27% 78 30.12 0.0
03 14:15 S 20 G 26 10.00 NULL NULL 78.1 41.7 27% 78 30.13 0.0
03 13:55 S 14 G 22 10.00 NULL NULL 77 42.3 29% 78 30.15 0.0
03 13:35 S 17 G 25 10.00 NULL NULL 76.6 42.4 30% 77 30.16 0.0
03 13:15 S 15 G 21 10.00 NULL NULL 76.3 42.3 30% 77 30.17 0.0
03 12:55 S 14 G 22 10.00 NULL NULL 76.1 41 76.1 54.7 28% 77 30.18 0.0
03 12:35 S 13 G 22 10.00 NULL NULL 75.2 40.8 29% 77 30.19 0.0
03 12:15 S 14 G 21 10.00 NULL NULL 74.5 43 32% 30.2 0.0
03 11:55 S 15 G 18 10.00 NULL NULL 73.6 43.5 34% 30.21 0.0
03 11:35 SW 15 G 22 10.00 NULL NULL 73 45.3 37% 30.21 0.0
03 11:15 SW 14 G 21 10.00 NULL NULL 71.2 45.7 40% 30.22 0.0
03 10:55 SW 16 G 22 10.00 NULL NULL 69.8 45.5 42% 30.22 0.0
03 10:35 SW 17 G 23 10.00 NULL NULL 69.1 46.2 44% 30.22 0.0
03 10:15 SW 14 10.00 NULL NULL 67.3 46.8 48% 30.23 0.0
03 09:55 SW 16 10.00 NULL NULL 66.7 46.4 48% 30.23 0.0
03 09:35 SW 18 G 22 10.00 NULL NULL 66 46.6 50% 30.23 0.0
03 09:15 SW 17 G 21 10.00 NULL NULL 64.6 46.8 53% 30.23 0.0
03 08:55 SW 14 G 20 10.00 NULL NULL 63 46.6 55% 30.22 0.0
03 08:35 SW 15 10.00 NULL NULL 61.7 46.4 57% 30.21 0.0
03 08:15 SW 14 10.00 NULL NULL 59.9 45.7 60% 30.21 0.0
03 07:55 S 12 10.00 NULL NULL 58.1 44.8 61% 30.21 0.0
03 07:35 SW 12 10.00 NULL NULL 56.7 44.1 63% 30.2 0.0
03 07:15 SW 10 10.00 NULL NULL 55 43.7 66% 30.19 0.0
03 06:55 SW 10 10.00 NULL NULL 54.9 43.3 59.2 54.5 65% 30.19 0.0
03 06:35 SW 12 10.00 NULL NULL 54.9 43.7 66% 30.19 0.0
03 06:20 SW 12 10.00 NULL NULL 54.5 43.7 67% 30.18 0.0
03 05:55 SW 10 10.00 NULL NULL 54.5 43.7 67% 30.18 0.0
03 05:35 SW 9 10.00 NULL NULL 55 43.3 65% 30.18 0.0
03 05:15 SW 12 10.00 NULL NULL 55.8 43.2 63% 30.18 0.0
03 04:55 SW 12 10.00 NULL NULL 56.5 43.2 61% 30.19 0.0
03 04:35 SW 12 10.00 NULL NULL 55.6 43.5 64% 30.18 0.0
03 04:15 SW 10 10.00 NULL NULL 56.7 43.2 61% 30.18 0.0
03 03:55 SW 12 10.00 NULL NULL 56.8 43.3 61% 30.18 0.0
03 03:35 SW 10 10.00 NULL NULL 55.9 44.2 65% 30.18 0.0
03 03:15 S 10 10.00 NULL NULL 56.5 43.9 63% 30.19 0.0
03 02:55 SW 12 10.00 NULL NULL 57.2 44.2 62% 30.19 0.0
03 02:35 SW 10 10.00 NULL NULL 57.4 44.8 63% 30.19 0.0
03 02:15 SW 10 10.00 NULL NULL 57.2 45 64% 30.19 0.0
03 01:55 SW 10 10.00 NULL NULL 57.6 45.1 63% 30.2 0.0
03 01:35 SW 10 10.00 NULL NULL 58.3 45.3 62% 30.2 0.0
03 01:15 SW 10 10.00 NULL NULL 59 45.5 61% 30.2 0.0
03 00:55 SW 10 10.00 NULL NULL 59.4 45.7 72.9 59.2 61% 30.2 0.0
03 00:35 SW 10 10.00 NULL NULL 59.4 46 62% 30.2 0.0
03 00:15 SW 10 10.00 NULL NULL 59.5 45.9 61% 30.2 0.0
02 23:55 SW 10 10.00 NULL NULL 60.1 45.7 59% 30.2 0.0
02 23:35 SW 9 10.00 NULL NULL 60.8 45.7 58% 30.2 0.0
02 23:15 SW 9 10.00 NULL NULL 60.8 46 58% 30.2 0.0
02 22:55 SW 9 10.00 NULL NULL 60.3 45.9 59% 30.2 0.0
02 22:35 SW 9 10.00 NULL NULL 60.4 45.5 58% 30.19 0.0
02 22:15 SW 8 10.00 NULL NULL 61.5 45 55% 30.19 0.0
02 21:55 SW 8 10.00 NULL NULL 63.5 44.1 49% 30.19 0.0
02 21:35 SW 9 10.00 NULL NULL 63.3 45 51% 30.18 0.0
02 21:15 SW 7 7.00 NULL NULL 64.2 44.1 48% 30.18 0.0
02 20:55 SW 7 10.00 NULL NULL 64.8 43.2 46% 30.17 0.0
02 20:35 SW 6 10.00 NULL NULL 66.4 41.9 41% 30.17 0.0
02 20:15 SW 6 10.00 NULL NULL 68.9 40.8 36% 30.16 0.0
02 19:55 W 7 10.00 NULL NULL 70.5 40.6 34% 30.16 0.0
02 19:35 S 7 10.00 NULL NULL 71.6 40.1 32% 30.16 0.0
02 19:15 SW 3 10.00 NULL NULL 72.7 39.7 30% 30.16 0.0
02 18:55 W 8 10.00 NULL NULL 73.2 39.4 78.4 68 29% 30.16 0.0
02 18:35 W 3 10.00 NULL NULL 73.8 39.7 29% 30.16 0.0
02 18:15 SW 5 10.00 NULL NULL 72.7 39.9 31% 30.17 0.0
02 17:55 SW 7 10.00 NULL NULL 74.1 40.6 30% 30.17 0.0
02 17:35 SW 6 10.00 NULL NULL 75.4 40.3 28% 77 30.17 0.0
02 17:15 W 3 10.00 NULL NULL 72 40.6 32% 30.18 0.0
02 16:55 W 5 10.00 NULL NULL 72.3 39 30% 30.18 0.0
02 16:35 W 6 10.00 NULL NULL 73.4 39.4 29% 30.19 0.0
02 16:15 W 8 10.00 NULL NULL 73.9 39.7 29% 30.2 0.0
02 15:55 NW 3 10.00 NULL NULL 75 40.1 28% 77 30.21 0.0
02 15:35 W 8 10.00 NULL NULL 78.1 41.7 27% 78 30.21 0.0
02 15:15 W 5 10.00 NULL NULL 76.1 41.9 29% 77 30.22 0.0
02 14:55 SW 7 10.00 NULL NULL 76.3 45 33% 78 30.22 0.0
02 14:35 N 6 10.00 NULL NULL 71.2 43.3 37% 30.22 0.0
02 14:15 NE 3 10.00 NULL NULL 71.2 42.4 35% 30.23 0.0
02 13:55 N 5 10.00 NULL NULL 75.6 43.2 31% 77 30.24 0.0
02 13:35 Calm 10.00 NULL NULL 71.1 42.1 35% 30.24 0.0
02 13:15 Calm 10.00 NULL NULL 70 47.1 44% 30.25 0.0
02 12:55 W 3 10.00 NULL NULL 69.6 43.2 71.8 50 39% 30.26 0.0
02 12:35 Calm 10.00 NULL NULL 69.1 45.1 42% 30.26 0.0
02 12:15 Calm 10.00 NULL NULL 69.6 47.8 46% 30.27 0.0
02 11:55 NW 5 10.00 NULL NULL 68.2 46.4 46% 30.27 0.0
02 11:35 SW 6 10.00 NULL NULL 66.9 47.1 49% 30.27 0.0
02 11:15 NW 6 10.00 NULL NULL 65.5 45.1 48% 30.27 0.0
02 10:55 W 6 10.00 NULL NULL 65.1 46 50% 30.27 0.0
02 10:35 N 3 10.00 NULL NULL 64.4 44.2 48% 30.27 0.0
02 10:15 Calm 10.00 NULL NULL 62.6 44.1 51% 30.28 0.0
02 09:55 NW 8 10.00 NULL NULL 62.6 44.1 51% 30.27 0.0
02 09:35 NW 9 10.00 NULL NULL 62.8 46.2 55% 30.27 0.0
02 09:15 NW 7 10.00 NULL NULL 62.6 48.9 61% 30.26 0.0
02 08:55 NW 7 10.00 NULL NULL 61.3 48.6 63% 30.26 0.0
02 08:35 W 7 10.00 NULL NULL 59.9 48.2 65% 30.25 0.0
02 08:15 W 6 10.00 NULL NULL 57.9 50.4 76% 30.25 0.0
02 07:55 W 5 10.00 NULL NULL 55 49.6 82% 30.24 0.0
02 07:35 W 7 10.00 NULL NULL 51.8 47.1 84% 30.22 0.0
02 07:15 W 7 10.00 NULL NULL 50.4 45.3 83% 30.21 0.0
02 06:55 W 8 10.00 NULL NULL 49.8 44.6 54.5 49.1 82% 47 30.21 0.0
02 06:35 W 8 10.00 NULL NULL 49.6 44.2 82% 47 30.21 0.0
02 06:15 W 7 10.00 NULL NULL 49.5 43.9 81% 47 30.21 0.0
02 05:55 W 8 10.00 NULL NULL 49.5 43.5 80% 47 30.2 0.0
02 05:35 W 7 10.00 NULL NULL 49.6 43.7 80% 47 30.19 0.0
02 05:15 W 7 10.00 NULL NULL 49.5 43.3 80% 47 30.19 0.0
02 04:55 W 7 10.00 NULL NULL 49.1 42.8 79% 47 30.19 0.0
02 04:35 W 7 10.00 NULL NULL 49.3 42.8 78% 47 30.18 0.0
02 04:15 W 6 10.00 NULL NULL 49.6 42.4 76% 48 30.18 0.0
02 03:55 W 7 10.00 NULL NULL 50.2 43.2 77% 30.18 0.0
02 03:35 W 6 10.00 NULL NULL 50.2 43.2 77% 30.18 0.0
02 03:15 W 6 10.00 NULL NULL 50.4 43.2 76% 30.18 0.0
02 03:00 W 5 10.00 NULL NULL 50.5 43.9 78% 30.18 0.0
02 02:35 W 6 10.00 NULL NULL 51.1 44.6 79% 30.19 0.0
02 02:20 W 5 10.00 NULL NULL 51.1 43.7 76% 30.19 0.0
02 01:55 W 5 10.00 NULL NULL 51.8 44.2 76% 30.19 0.0
02 01:35 W 5 10.00 NULL NULL 52.9 46.4 79% 30.19 0.0
02 01:15 W 5 10.00 NULL NULL 53.2 45.5 75% 30.19 0.0
02 00:55 W 3 10.00 NULL NULL 54.5 45.7 61.2 54.3 72% 30.19 0.0
02 00:35 Calm 10.00 NULL NULL 54.7 45.9 72% 30.18 0.0
02 00:15 Calm 10.00 NULL NULL 54.5 45.1 71% 30.17 0.0
01 23:55 S 3 10.00 NULL NULL 54.5 44.6 69% 30.17 0.0
01 23:35 S 3 10.00 NULL NULL 54.5 43.9 68% 30.16 0.0
01 23:15 Calm 10.00 NULL NULL 54.5 44.1 68% 30.16 0.0
01 22:55 SE 6 10.00 NULL NULL 55.4 44.6 67% 30.16 0.0
01 22:35 Calm 10.00 NULL NULL 55.4 44.6 67% 30.16 0.0
01 22:15 E 3 10.00 NULL NULL 55.9 44.8 66% 30.16 0.0
01 21:55 SE 5 10.00 NULL NULL 56.3 45 66% 30.15 0.0
01 21:35 SE 3 10.00 NULL NULL 56.1 44.4 65% 30.14 0.0
01 21:15 E 5 10.00 NULL NULL 56.5 45 66% 30.13 0.0
01 20:55 Calm 10.00 NULL NULL 56.3 43.2 62% 30.13 0.0
01 20:35 E 8 10.00 NULL NULL 57.9 43.7 59% 30.1 0.0
01 20:15 NE 6 10.00 NULL NULL 59 42.8 55% 30.11 0.0
01 19:55 NE 9 10.00 NULL NULL 59.9 42.1 52% 30.1 0.0
01 19:35 NE 12 10.00 NULL NULL 60.8 42.6 51% 30.08 0.0
01 19:15 NE 10 10.00 NULL NULL 60.8 43.7 54% 30.08 0.0
01 18:55 NE 12 10.00 NULL NULL 61.3 44.6 63.1 52.7 54% 30.07 0.0
01 18:35 NE 12 G 17 10.00 NULL NULL 61.5 45.5 56% 30.06 0.0
01 18:15 NE 13 G 17 10.00 NULL NULL 61 45.3 57% 30.05 0.0
01 17:55 NE 14 10.00 NULL NULL 61.2 45.5 57% 30.05 0.0
01 17:35 NE 15 G 21 10.00 NULL NULL 62.1 45.3 54% 30.04 0.0
01 17:15 NE 16 G 22 10.00 NULL NULL 62.6 43.7 50% 30.04 0.0
01 16:55 E 17 G 22 10.00 NULL NULL 62.8 43.9 50% 30.03 0.0
01 16:35 NE 15 G 22 10.00 NULL NULL 59.5 46.4 62% 30.04 0.0
01 16:15 NE 14 G 21 10.00 NULL NULL 59 49.6 71% 30.04 0.0
01 15:55 NE 16 G 20 10.00 NULL NULL 59 52.3 79% 30.04 0.0
01 15:35 NE 15 G 20 10.00 NULL NULL 58.3 54.7 88% 30.05 0.0
01 15:15 NE 13 10.00 NULL NULL 58.5 58.5 100% 30.06 0.0
01 14:55 NE 12 G 21 10.00 NULL NULL 57.9 57.9 100% 30.07 0.0
01 14:35 E 12 10.00 NULL NULL 57.9 57.9 100% 30.08 0.0
01 14:15 NE 10 10.00 NULL NULL 57 57 100% 30.09 0.0
01 13:55 NE 14 10.00 NULL NULL 56.5 56.5 100% 30.09 0.0
01 13:35 NE 9 10.00 NULL NULL 55.2 55.2 100% 30.1 0.0
01 13:15 NE 9 10.00 NULL NULL 52.9 52.9 100% 30.11 0.0
01 12:55 NE 12 10.00 NULL NULL 52.9 52.9 54.3 52.9 100% 30.12 0.0 0.11 0.19
01 12:35 NE 13 G 16 5.00 NULL NULL 53.1 53.1 100% 30.12 0.0 0.1
01 12:15 E 7 4.00 NULL NULL 53.1 53.1 100% 30.12 0.0 0.05
01 11:55 NE 8 4.00 NULL NULL 53.2 53.2 100% 30.12 0.0 0.05
01 11:35 NE 6 G 9 7.00 NULL NULL 53.2 53.2 100% 30.12 0.0 0.02
01 11:15 E 13 G 24 10.00 NULL NULL 53.2 53.2 100% 30.05 0.0
01 10:55 NE 14 G 18 10.00 NULL NULL 54 54 100% 30.05 0.0
01 10:35 E 14 10.00 NULL NULL 54.3 54.3 100% 30.05 0.0
01 10:15 NE 13 G 18 10.00 NULL NULL 53.8 53.8 100% 30.05 0.0
01 09:55 NE 14 G 21 10.00 NULL NULL 54 54 100% 30.04 0.0 0.02 0.03
01 09:35 NE 15 G 21 7.00 NULL NULL 53.8 53.8 100% 30.04 0.0 0.02
01 09:15 NE 14 G 17 10.00 NULL NULL 54 54 100% 30.04 0.0
01 08:55 NE 10 10.00 NULL NULL 54 54 100% 30.05 0.0
01 08:35 NE 10 10.00 NULL NULL 53.6 53.6 100% 30.04 0.0
01 08:15 NE 12 7.00 NULL NULL 53.6 53.6 100% 30.04 0.0
01 07:55 E 12 7.00 NULL NULL 53.6 53.6 100% 30.03 0.0 0.01
01 07:35 E 8 10.00 NULL NULL 53.6 53.6 100% 30.03 0.0 0.01
01 07:15 E 8 10.00 NULL NULL 53.6 53.6 100% 30.04 0.0
01 06:55 E 13 G 17 10.00 NULL NULL 54 54 56.5 53.8 100% 30.02 0.0 0.18
01 06:35 E 12 G 18 10.00 NULL NULL 54 54 100% 30.01 0.0
01 06:15 E 14 G 17 10.00 NULL NULL 53.8 53.8 100% 30.01 0.0
01 05:55 E 15 7.00 NULL NULL 54 54 100% 30.01 0.0
01 05:35 E 15 10.00 NULL NULL 54 54 100% 30.01 0.0
01 05:15 E 13 7.00 NULL NULL 54 54 100% 30.01 0.0
01 04:55 E 17 G 24 7.00 NULL NULL 54 54 100% 29.98 0.0 0.01
01 04:35 E 16 G 20 5.00 NULL NULL 54.1 54.1 100% 29.98 0.0 0.01
01 04:15 E 15 G 20 7.00 NULL NULL 54.1 54.1 100% 30.02 0.0 0.01
01 04:00 NE 17 7.00 NULL NULL 54.7 54.7 100% 30.02 0.0
01 03:35 NE 12 5.00 NULL NULL 54.9 54.9 100% 30.02 0.0 0.04
01 03:15 NE 13 4.00 NULL NULL 54.9 54.9 100% 30.03 0.0 0.03
01 02:55 E 9 5.00 Overcast BKN003 BKN060 OVC070 54.9 54.9 100% 30.04 0.0 0.08
01 02:35 E 14 5.00 Overcast BKN003 BKN008 OVC070 55 55 100% 30.04 0.0 0.06
01 02:15 NE 10 5.00 NULL NULL 55.4 55.4 100% 30.04 0.0 0.03
01 01:55 E 10 5.00 NULL NULL 55.6 55.6 100% 30.03 0.0 0.05
01 01:35 NE 13 5.00 NULL NULL 55.8 55.8 100% 30.03 0.0 0.03
01 01:15 NE 7 7.00 NULL NULL 56.3 56.3 100% 30.04 0.0 0.01
01 00:55 E 9 7.00 NULL NULL 56.5 56.5 61 56.5 100% 30.03 0.0 0.03 0.06
01 00:35 E 9 5.00 NULL NULL 56.5 56.5 100% 30.03 0.0 0.02
Date Time (cdt) Wind (mph) Vis. (mi.) Weather Sky Cond. Air Dwpt Max. Min. Relative Humidity Wind Chill (°F) Heat Index (°F) altimeter (in) sea level (mb) 1 hr 3 hr 6 hr
6 hour
Temperature (ºF) Pressure Precipitation (in)